sensor_id;sensor_type;location;lat;lon;timestamp;pressure;altitude;pressure_sealevel;temperature;humidity
18137;BME280;9194;42.632;23.298;2024-02-04T00:01:54;92985.34;;;6.52;92.16
18137;BME280;9194;42.632;23.298;2024-02-04T00:06:55;92968.78;;;6.47;92.16
18137;BME280;9194;42.632;23.298;2024-02-04T00:11:57;92974.47;;;6.36;92.92
18137;BME280;9194;42.632;23.298;2024-02-04T00:16:59;92946.19;;;6.28;92.49
18137;BME280;9194;42.632;23.298;2024-02-04T00:22:01;92950.84;;;6.39;91.36
18137;BME280;9194;42.632;23.298;2024-02-04T00:27:02;92961.69;;;6.28;91.97
18137;BME280;9194;42.632;23.298;2024-02-04T00:32:04;92960.34;;;6.32;91.95
18137;BME280;9194;42.632;23.298;2024-02-04T00:37:05;92972.38;;;6.46;91.33
18137;BME280;9194;42.632;23.298;2024-02-04T00:42:07;92970.91;;;6.37;94.92
18137;BME280;9194;42.632;23.298;2024-02-04T00:47:08;92971.19;;;6.48;95.25
18137;BME280;9194;42.632;23.298;2024-02-04T00:52:09;92962.75;;;6.61;96.49
18137;BME280;9194;42.632;23.298;2024-02-04T00:57:11;92957.84;;;6.73;97.83
18137;BME280;9194;42.632;23.298;2024-02-04T01:02:12;92947.53;;;6.79;98.98
18137;BME280;9194;42.632;23.298;2024-02-04T01:07:14;92953.75;;;6.85;99.41
18137;BME280;9194;42.632;23.298;2024-02-04T01:12:16;92956.72;;;6.88;98.49
18137;BME280;9194;42.632;23.298;2024-02-04T01:17:18;92955.34;;;6.86;99.69
18137;BME280;9194;42.632;23.298;2024-02-04T01:22:19;92943.25;;;6.93;100.00
18137;BME280;9194;42.632;23.298;2024-02-04T01:27:20;92933.66;;;6.93;99.90
18137;BME280;9194;42.632;23.298;2024-02-04T01:32:21;92942.38;;;6.79;99.07
18137;BME280;9194;42.632;23.298;2024-02-04T01:37:23;92925.25;;;6.78;98.62
18137;BME280;9194;42.632;23.298;2024-02-04T01:42:24;92926.75;;;6.66;99.90
18137;BME280;9194;42.632;23.298;2024-02-04T01:47:25;92910.13;;;6.75;99.03
18137;BME280;9194;42.632;23.298;2024-02-04T01:52:27;92893.84;;;6.88;98.01
18137;BME280;9194;42.632;23.298;2024-02-04T01:57:28;92897.16;;;7.16;95.51
18137;BME280;9194;42.632;23.298;2024-02-04T02:02:30;92897.94;;;7.17;95.62
18137;BME280;9194;42.632;23.298;2024-02-04T02:07:32;92887.22;;;7.20;95.19
18137;BME280;9194;42.632;23.298;2024-02-04T02:12:59;92902.09;;;7.11;95.72
18137;BME280;9194;42.632;23.298;2024-02-04T02:18:05;92887.22;;;7.20;95.35
18137;BME280;9194;42.632;23.298;2024-02-04T02:23:22;92884.06;;;7.31;93.25
18137;BME280;9194;42.632;23.298;2024-02-04T02:28:23;92875.31;;;7.38;92.82
18137;BME280;9194;42.632;23.298;2024-02-04T02:33:24;92875.72;;;7.42;92.44
18137;BME280;9194;42.632;23.298;2024-02-04T02:38:44;92890.88;;;7.52;90.29
18137;BME280;9194;42.632;23.298;2024-02-04T02:43:50;92899.88;;;7.56;89.97
18137;BME280;9194;42.632;23.298;2024-02-04T02:48:52;92876.13;;;7.39;90.99
18137;BME280;9194;42.632;23.298;2024-02-04T02:53:54;92887.63;;;7.30;91.55
18137;BME280;9194;42.632;23.298;2024-02-04T02:58:55;92894.59;;;7.29;91.79
18137;BME280;9194;42.632;23.298;2024-02-04T03:03:56;92883.31;;;7.43;90.21
18137;BME280;9194;42.632;23.298;2024-02-04T03:08:58;92882.13;;;7.53;89.73
18137;BME280;9194;42.632;23.298;2024-02-04T03:13:59;92876.16;;;7.65;89.33
18137;BME280;9194;42.632;23.298;2024-02-04T03:19:00;92850.09;;;7.73;89.78
18137;BME280;9194;42.632;23.298;2024-02-04T03:24:05;92856.66;;;7.63;91.03
18137;BME280;9194;42.632;23.298;2024-02-04T03:29:07;92855.44;;;7.65;91.70
18137;BME280;9194;42.632;23.298;2024-02-04T03:34:08;92879.38;;;7.67;92.19
18137;BME280;9194;42.632;23.298;2024-02-04T03:39:10;92874.97;;;7.61;93.74
18137;BME280;9194;42.632;23.298;2024-02-04T03:44:11;92873.34;;;7.47;93.87
18137;BME280;9194;42.632;23.298;2024-02-04T03:49:13;92842.63;;;7.31;95.27
18137;BME280;9194;42.632;23.298;2024-02-04T03:54:14;92849.78;;;7.29;95.14
18137;BME280;9194;42.632;23.298;2024-02-04T03:59:15;92849.22;;;7.40;95.68
18137;BME280;9194;42.632;23.298;2024-02-04T04:04:17;92856.59;;;7.36;96.23
18137;BME280;9194;42.632;23.298;2024-02-04T04:09:18;92869.75;;;7.48;96.75
18137;BME280;9194;42.632;23.298;2024-02-04T04:14:19;92869.38;;;7.58;98.61
18137;BME280;9194;42.632;23.298;2024-02-04T04:19:20;92834.69;;;7.46;99.84
18137;BME280;9194;42.632;23.298;2024-02-04T04:24:22;92859.34;;;7.28;100.00
18137;BME280;9194;42.632;23.298;2024-02-04T04:29:23;92837.84;;;7.21;100.00
18137;BME280;9194;42.632;23.298;2024-02-04T04:34:24;92875.16;;;7.53;100.00
18137;BME280;9194;42.632;23.298;2024-02-04T04:39:25;92893.72;;;7.70;100.00
18137;BME280;9194;42.632;23.298;2024-02-04T04:44:27;92877.94;;;7.58;100.00
18137;BME280;9194;42.632;23.298;2024-02-04T04:49:28;92871.00;;;7.65;99.57
18137;BME280;9194;42.632;23.298;2024-02-04T04:54:29;92881.34;;;7.59;98.94
18137;BME280;9194;42.632;23.298;2024-02-04T04:59:31;92874.78;;;7.69;97.26
18137;BME280;9194;42.632;23.298;2024-02-04T05:04:32;92842.25;;;7.47;96.89
18137;BME280;9194;42.632;23.298;2024-02-04T05:09:33;92861.41;;;7.59;95.97
18137;BME280;9194;42.632;23.298;2024-02-04T05:14:35;92853.03;;;7.51;96.02
18137;BME280;9194;42.632;23.298;2024-02-04T05:19:36;92842.28;;;7.54;95.24
18137;BME280;9194;42.632;23.298;2024-02-04T05:24:37;92877.97;;;7.65;94.13
18137;BME280;9194;42.632;23.298;2024-02-04T05:29:39;92861.03;;;7.62;94.51
18137;BME280;9194;42.632;23.298;2024-02-04T05:34:40;92893.34;;;7.86;92.72
18137;BME280;9194;42.632;23.298;2024-02-04T05:39:41;92870.00;;;7.73;92.42
18137;BME280;9194;42.632;23.298;2024-02-04T05:44:42;92861.81;;;7.69;92.83
18137;BME280;9194;42.632;23.298;2024-02-04T05:49:44;92876.38;;;7.70;92.93
18137;BME280;9194;42.632;23.298;2024-02-04T05:54:45;92871.81;;;7.72;94.28
18137;BME280;9194;42.632;23.298;2024-02-04T05:59:46;92875.97;;;7.67;94.41
18137;BME280;9194;42.632;23.298;2024-02-04T06:04:49;92881.75;;;7.75;93.67
18137;BME280;9194;42.632;23.298;2024-02-04T06:09:50;92901.28;;;7.65;95.30
18137;BME280;9194;42.632;23.298;2024-02-04T06:14:51;92901.09;;;7.73;94.42
18137;BME280;9194;42.632;23.298;2024-02-04T06:19:53;92910.84;;;7.64;94.40
18137;BME280;9194;42.632;23.298;2024-02-04T06:24:54;92912.22;;;7.54;95.18
18137;BME280;9194;42.632;23.298;2024-02-04T06:29:55;92944.50;;;7.51;95.65
18137;BME280;9194;42.632;23.298;2024-02-04T06:34:57;92929.53;;;7.53;93.68
18137;BME280;9194;42.632;23.298;2024-02-04T06:39:59;92934.94;;;7.58;91.45
18137;BME280;9194;42.632;23.298;2024-02-04T06:45:00;92930.81;;;7.77;89.59
18137;BME280;9194;42.632;23.298;2024-02-04T06:50:01;92926.44;;;8.04;86.69
18137;BME280;9194;42.632;23.298;2024-02-04T06:55:06;92881.81;;;8.48;79.79
18137;BME280;9194;42.632;23.298;2024-02-04T07:00:08;92937.03;;;8.68;77.14
18137;BME280;9194;42.632;23.298;2024-02-04T07:05:09;92950.06;;;8.61;77.94
18137;BME280;9194;42.632;23.298;2024-02-04T07:10:11;92962.41;;;8.66;76.15
18137;BME280;9194;42.632;23.298;2024-02-04T07:15:13;92920.72;;;8.54;79.54
18137;BME280;9194;42.632;23.298;2024-02-04T07:20:14;92947.84;;;8.52;80.30
18137;BME280;9194;42.632;23.298;2024-02-04T07:25:15;92932.06;;;8.34;81.05
18137;BME280;9194;42.632;23.298;2024-02-04T07:30:17;92918.06;;;8.81;75.00
18137;BME280;9194;42.632;23.298;2024-02-04T07:35:18;92927.59;;;9.06;75.34
18137;BME280;9194;42.632;23.298;2024-02-04T07:40:19;92918.06;;;9.38;68.74
18137;BME280;9194;42.632;23.298;2024-02-04T07:45:20;92929.91;;;9.34;69.90
18137;BME280;9194;42.632;23.298;2024-02-04T07:50:22;92922.31;;;9.26;68.64
18137;BME280;9194;42.632;23.298;2024-02-04T07:55:23;92932.09;;;9.37;68.01
18137;BME280;9194;42.632;23.298;2024-02-04T08:00:24;92936.09;;;9.33;66.55
18137;BME280;9194;42.632;23.298;2024-02-04T08:05:26;92897.88;;;9.47;63.97
18137;BME280;9194;42.632;23.298;2024-02-04T08:10:27;92943.00;;;9.53;64.31
18137;BME280;9194;42.632;23.298;2024-02-04T08:15:28;92910.44;;;9.50;67.17
18137;BME280;9194;42.632;23.298;2024-02-04T08:20:30;92913.03;;;9.50;67.41
18137;BME280;9194;42.632;23.298;2024-02-04T08:25:31;92931.31;;;9.75;67.65
18137;BME280;9194;42.632;23.298;2024-02-04T08:30:32;92911.69;;;10.10;67.39
18137;BME280;9194;42.632;23.298;2024-02-04T08:35:34;92918.34;;;10.06;67.42
18137;BME280;9194;42.632;23.298;2024-02-04T08:40:35;92912.53;;;10.04;67.99
18137;BME280;9194;42.632;23.298;2024-02-04T08:45:36;92920.81;;;9.95;72.29
18137;BME280;9194;42.632;23.298;2024-02-04T08:50:38;92941.72;;;9.75;71.87
18137;BME280;9194;42.632;23.298;2024-02-04T08:55:39;92954.44;;;9.89;72.52
18137;BME280;9194;42.632;23.298;2024-02-04T09:00:40;92970.44;;;9.86;74.18
18137;BME280;9194;42.632;23.298;2024-02-04T09:05:41;92952.47;;;9.40;77.53
18137;BME280;9194;42.632;23.298;2024-02-04T09:10:42;92965.44;;;9.40;79.28
18137;BME280;9194;42.632;23.298;2024-02-04T09:15:45;92949.06;;;9.40;78.46
18137;BME280;9194;42.632;23.298;2024-02-04T09:20:47;92979.84;;;9.36;78.89
18137;BME280;9194;42.632;23.298;2024-02-04T09:25:48;92983.84;;;9.32;78.99
18137;BME280;9194;42.632;23.298;2024-02-04T09:30:50;92975.47;;;9.30;81.09
18137;BME280;9194;42.632;23.298;2024-02-04T09:35:51;92980.66;;;9.37;80.90
18137;BME280;9194;42.632;23.298;2024-02-04T09:40:53;92982.53;;;9.61;78.97
18137;BME280;9194;42.632;23.298;2024-02-04T09:45:54;92948.00;;;9.92;77.85
18137;BME280;9194;42.632;23.298;2024-02-04T09:50:56;92966.09;;;9.74;77.98
18137;BME280;9194;42.632;23.298;2024-02-04T09:55:58;92965.47;;;9.78;77.46
18137;BME280;9194;42.632;23.298;2024-02-04T10:01:00;92954.16;;;10.04;76.23
18137;BME280;9194;42.632;23.298;2024-02-04T10:06:02;92921.75;;;10.32;75.01
18137;BME280;9194;42.632;23.298;2024-02-04T10:11:03;92970.03;;;10.27;75.27
18137;BME280;9194;42.632;23.298;2024-02-04T10:16:05;92958.91;;;10.95;71.96
18137;BME280;9194;42.632;23.298;2024-02-04T10:21:20;92971.31;;;10.18;74.14
18137;BME280;9194;42.632;23.298;2024-02-04T10:26:22;92973.84;;;9.87;77.91
18137;BME280;9194;42.632;23.298;2024-02-04T10:31:23;92969.25;;;9.89;78.91
18137;BME280;9194;42.632;23.298;2024-02-04T10:36:26;92965.09;;;9.75;78.98
18137;BME280;9194;42.632;23.298;2024-02-04T10:41:29;92952.19;;;9.55;81.83
18137;BME280;9194;42.632;23.298;2024-02-04T10:46:33;92942.22;;;9.90;79.54
18137;BME280;9194;42.632;23.298;2024-02-04T10:51:36;92954.50;;;9.76;80.81
18137;BME280;9194;42.632;23.298;2024-02-04T10:56:45;92976.97;;;9.58;80.74
18137;BME280;9194;42.632;23.298;2024-02-04T11:01:47;92985.84;;;9.37;83.01
18137;BME280;9194;42.632;23.298;2024-02-04T11:06:53;92966.88;;;9.36;83.43
18137;BME280;9194;42.632;23.298;2024-02-04T11:11:59;92959.59;;;9.52;82.42
18137;BME280;9194;42.632;23.298;2024-02-04T11:17:28;92957.81;;;9.52;81.74
18137;BME280;9194;42.632;23.298;2024-02-04T11:28:00;92917.41;;;9.94;79.85
18137;BME280;9194;42.632;23.298;2024-02-04T11:33:06;92919.22;;;9.94;79.94
18137;BME280;9194;42.632;23.298;2024-02-04T11:38:07;92924.28;;;9.82;81.19
18137;BME280;9194;42.632;23.298;2024-02-04T11:43:13;92913.75;;;10.02;79.26
18137;BME280;9194;42.632;23.298;2024-02-04T11:48:15;92916.09;;;10.16;77.04
18137;BME280;9194;42.632;23.298;2024-02-04T11:53:17;92908.25;;;9.85;79.18
18137;BME280;9194;42.632;23.298;2024-02-04T11:58:19;92877.75;;;9.67;79.80
18137;BME280;9194;42.632;23.298;2024-02-04T12:03:31;92857.44;;;9.58;79.95
18137;BME280;9194;42.632;23.298;2024-02-04T12:08:33;92848.19;;;9.62;78.55
18137;BME280;9194;42.632;23.298;2024-02-04T12:13:35;92866.66;;;9.85;75.13
18137;BME280;9194;42.632;23.298;2024-02-04T12:18:49;92850.31;;;10.03;74.44
18137;BME280;9194;42.632;23.298;2024-02-04T12:23:51;92843.53;;;10.02;73.89
18137;BME280;9194;42.632;23.298;2024-02-04T12:28:53;92870.59;;;9.94;75.17
18137;BME280;9194;42.632;23.298;2024-02-04T12:33:59;92859.59;;;9.92;74.67
18137;BME280;9194;42.632;23.298;2024-02-04T12:39:04;92888.94;;;9.68;76.30
18137;BME280;9194;42.632;23.298;2024-02-04T12:44:08;92869.44;;;9.59;76.69
18137;BME280;9194;42.632;23.298;2024-02-04T12:49:09;92871.19;;;9.65;76.54
18137;BME280;9194;42.632;23.298;2024-02-04T12:54:12;92878.56;;;9.99;74.59
18137;BME280;9194;42.632;23.298;2024-02-04T12:59:27;92864.28;;;10.08;74.36
18137;BME280;9194;42.632;23.298;2024-02-04T13:04:36;92887.22;;;9.93;73.51
18137;BME280;9194;42.632;23.298;2024-02-04T13:09:38;92872.88;;;9.84;74.96
18137;BME280;9194;42.632;23.298;2024-02-04T13:14:41;92875.22;;;9.61;77.21
18137;BME280;9194;42.632;23.298;2024-02-04T13:19:43;92855.44;;;9.60;76.65
18137;BME280;9194;42.632;23.298;2024-02-04T13:24:45;92894.00;;;9.94;74.67
18137;BME280;9194;42.632;23.298;2024-02-04T13:29:46;92907.84;;;10.19;72.94
18137;BME280;9194;42.632;23.298;2024-02-04T13:34:49;92899.31;;;10.06;73.60
18137;BME280;9194;42.632;23.298;2024-02-04T13:39:50;92890.19;;;9.65;76.35
18137;BME280;9194;42.632;23.298;2024-02-04T13:44:52;92890.25;;;9.52;77.73
18137;BME280;9194;42.632;23.298;2024-02-04T13:49:53;92891.91;;;9.40;78.59
18137;BME280;9194;42.632;23.298;2024-02-04T13:54:55;92897.13;;;9.33;78.61
18137;BME280;9194;42.632;23.298;2024-02-04T13:59:56;92890.31;;;9.32;80.13
18137;BME280;9194;42.632;23.298;2024-02-04T14:04:57;92878.59;;;9.23;80.13
18137;BME280;9194;42.632;23.298;2024-02-04T14:09:59;92885.03;;;9.14;80.90
18137;BME280;9194;42.632;23.298;2024-02-04T14:15:00;92879.13;;;9.38;79.34
18137;BME280;9194;42.632;23.298;2024-02-04T14:20:01;92872.13;;;9.39;79.34
18137;BME280;9194;42.632;23.298;2024-02-04T14:25:05;92889.50;;;9.38;79.46
18137;BME280;9194;42.632;23.298;2024-02-04T14:30:07;92862.94;;;9.43;79.18
18137;BME280;9194;42.632;23.298;2024-02-04T14:35:09;92873.25;;;9.49;78.75
18137;BME280;9194;42.632;23.298;2024-02-04T14:40:11;92880.47;;;9.47;79.59
18137;BME280;9194;42.632;23.298;2024-02-04T14:45:12;92899.91;;;9.38;80.53
18137;BME280;9194;42.632;23.298;2024-02-04T14:50:14;92905.16;;;9.25;82.99
18137;BME280;9194;42.632;23.298;2024-02-04T14:55:16;92900.22;;;9.04;84.73
18137;BME280;9194;42.632;23.298;2024-02-04T15:00:18;92886.03;;;9.13;84.17
18137;BME280;9194;42.632;23.298;2024-02-04T15:05:19;92894.41;;;9.08;84.81
18137;BME280;9194;42.632;23.298;2024-02-04T15:10:23;92870.72;;;8.92;86.06
18137;BME280;9194;42.632;23.298;2024-02-04T15:15:24;92878.31;;;8.87;84.52
18137;BME280;9194;42.632;23.298;2024-02-04T15:20:26;92894.50;;;8.82;84.88
18137;BME280;9194;42.632;23.298;2024-02-04T15:25:28;92891.94;;;8.69;85.45
18137;BME280;9194;42.632;23.298;2024-02-04T15:30:30;92897.31;;;8.74;85.64
18137;BME280;9194;42.632;23.298;2024-02-04T15:35:32;92876.38;;;8.62;85.97
18137;BME280;9194;42.632;23.298;2024-02-04T15:40:34;92892.72;;;8.70;85.77
18137;BME280;9194;42.632;23.298;2024-02-04T15:45:36;92885.75;;;8.63;86.59
18137;BME280;9194;42.632;23.298;2024-02-04T15:50:37;92904.34;;;8.60;86.87
18137;BME280;9194;42.632;23.298;2024-02-04T15:55:39;92904.34;;;8.60;86.20
18137;BME280;9194;42.632;23.298;2024-02-04T16:00:41;92896.56;;;8.60;84.50
18137;BME280;9194;42.632;23.298;2024-02-04T16:05:42;92884.56;;;8.59;83.21
18137;BME280;9194;42.632;23.298;2024-02-04T16:10:44;92881.78;;;8.61;81.22
18137;BME280;9194;42.632;23.298;2024-02-04T16:15:49;92864.97;;;8.77;79.35
18137;BME280;9194;42.632;23.298;2024-02-04T16:20:52;92871.41;;;8.68;79.06
18137;BME280;9194;42.632;23.298;2024-02-04T16:25:53;92864.81;;;8.65;77.36
18137;BME280;9194;42.632;23.298;2024-02-04T16:30:56;92879.13;;;8.81;76.47
18137;BME280;9194;42.632;23.298;2024-02-04T16:35:57;92887.72;;;8.75;77.12
18137;BME280;9194;42.632;23.298;2024-02-04T16:40:59;92892.47;;;8.97;74.98
18137;BME280;9194;42.632;23.298;2024-02-04T16:46:01;92884.72;;;8.91;76.12
18137;BME280;9194;42.632;23.298;2024-02-04T16:51:02;92908.25;;;9.02;76.37
18137;BME280;9194;42.632;23.298;2024-02-04T16:56:03;92912.03;;;9.06;76.90
18137;BME280;9194;42.632;23.298;2024-02-04T17:01:05;92910.78;;;9.09;77.23
18137;BME280;9194;42.632;23.298;2024-02-04T17:06:07;92925.38;;;9.10;78.20
18137;BME280;9194;42.632;23.298;2024-02-04T17:11:09;92916.56;;;9.18;77.92
18137;BME280;9194;42.632;23.298;2024-02-04T17:21:41;92925.16;;;9.18;78.96
18137;BME280;9194;42.632;23.298;2024-02-04T17:26:47;92941.97;;;9.09;79.99
18137;BME280;9194;42.632;23.298;2024-02-04T17:31:50;92934.22;;;9.02;79.12
18137;BME280;9194;42.632;23.298;2024-02-04T17:36:52;92931.03;;;8.94;78.33
18137;BME280;9194;42.632;23.298;2024-02-04T17:41:54;92937.19;;;9.06;77.91
18137;BME280;9194;42.632;23.298;2024-02-04T17:46:55;92934.81;;;8.91;79.31
18137;BME280;9194;42.632;23.298;2024-02-04T17:51:56;92951.19;;;8.92;77.93
18137;BME280;9194;42.632;23.298;2024-02-04T17:56:57;92970.75;;;8.94;74.79
18137;BME280;9194;42.632;23.298;2024-02-04T18:01:59;92980.16;;;8.89;75.38
18137;BME280;9194;42.632;23.298;2024-02-04T18:07:00;92988.38;;;8.73;78.35
18137;BME280;9194;42.632;23.298;2024-02-04T18:12:02;92993.94;;;8.63;79.21
18137;BME280;9194;42.632;23.298;2024-02-04T18:17:03;92980.97;;;8.70;79.65
18137;BME280;9194;42.632;23.298;2024-02-04T18:22:07;92999.94;;;8.44;82.55
18137;BME280;9194;42.632;23.298;2024-02-04T18:27:08;93004.91;;;8.39;84.49
18137;BME280;9194;42.632;23.298;2024-02-04T18:32:10;93009.31;;;8.38;84.67
18137;BME280;9194;42.632;23.298;2024-02-04T18:37:12;93001.13;;;8.35;85.25
18137;BME280;9194;42.632;23.298;2024-02-04T18:42:13;92994.09;;;8.29;86.61
18137;BME280;9194;42.632;23.298;2024-02-04T18:47:16;93002.88;;;8.27;86.68
18137;BME280;9194;42.632;23.298;2024-02-04T18:52:17;93005.47;;;8.21;87.53
18137;BME280;9194;42.632;23.298;2024-02-04T18:57:19;93007.91;;;8.42;83.60
18137;BME280;9194;42.632;23.298;2024-02-04T19:02:20;93002.31;;;8.58;80.63
18137;BME280;9194;42.632;23.298;2024-02-04T19:07:21;93011.91;;;8.32;81.10
18137;BME280;9194;42.632;23.298;2024-02-04T19:12:23;93001.13;;;8.41;79.00
18137;BME280;9194;42.632;23.298;2024-02-04T19:17:25;93011.44;;;8.28;78.92
18137;BME280;9194;42.632;23.298;2024-02-04T19:22:27;92995.31;;;8.26;77.91
18137;BME280;9194;42.632;23.298;2024-02-04T19:27:30;93002.66;;;8.22;77.96
18137;BME280;9194;42.632;23.298;2024-02-04T19:32:31;92989.94;;;8.34;77.61
18137;BME280;9194;42.632;23.298;2024-02-04T19:37:32;92990.34;;;8.31;76.11
18137;BME280;9194;42.632;23.298;2024-02-04T19:42:34;92982.91;;;8.21;74.73
18137;BME280;9194;42.632;23.298;2024-02-04T19:47:36;92987.47;;;8.06;75.90
18137;BME280;9194;42.632;23.298;2024-02-04T19:52:39;92992.69;;;8.13;75.27
18137;BME280;9194;42.632;23.298;2024-02-04T19:57:41;92992.88;;;8.18;74.39
18137;BME280;9194;42.632;23.298;2024-02-04T20:02:42;93001.66;;;8.23;75.44
18137;BME280;9194;42.632;23.298;2024-02-04T20:07:44;92992.09;;;8.17;76.14
18137;BME280;9194;42.632;23.298;2024-02-04T20:12:45;92984.31;;;8.24;75.22
18137;BME280;9194;42.632;23.298;2024-02-04T20:17:50;92999.69;;;8.25;73.35
18137;BME280;9194;42.632;23.298;2024-02-04T20:22:52;92999.88;;;8.17;73.57
18137;BME280;9194;42.632;23.298;2024-02-04T20:27:55;93003.72;;;8.35;70.85
18137;BME280;9194;42.632;23.298;2024-02-04T20:32:57;92981.53;;;8.19;72.42
18137;BME280;9194;42.632;23.298;2024-02-04T20:37:59;92986.69;;;8.06;73.07
18137;BME280;9194;42.632;23.298;2024-02-04T20:43:01;92987.50;;;8.19;72.04
18137;BME280;9194;42.632;23.298;2024-02-04T20:48:03;92973.75;;;8.25;71.98
18137;BME280;9194;42.632;23.298;2024-02-04T20:53:04;92966.94;;;8.11;71.23
18137;BME280;9194;42.632;23.298;2024-02-04T20:58:05;92967.75;;;8.12;71.63
18137;BME280;9194;42.632;23.298;2024-02-04T21:03:07;92968.97;;;8.09;72.20
18137;BME280;9194;42.632;23.298;2024-02-04T21:08:08;92957.97;;;8.14;72.26
18137;BME280;9194;42.632;23.298;2024-02-04T21:13:10;92962.00;;;8.62;69.94
18137;BME280;9194;42.632;23.298;2024-02-04T21:18:11;92964.81;;;8.41;71.24
18137;BME280;9194;42.632;23.298;2024-02-04T21:23:12;92951.03;;;8.47;71.38
18137;BME280;9194;42.632;23.298;2024-02-04T21:28:16;92959.03;;;8.65;70.89
18137;BME280;9194;42.632;23.298;2024-02-04T21:33:17;92941.03;;;8.84;70.19
18137;BME280;9194;42.632;23.298;2024-02-04T21:38:20;92957.59;;;8.83;69.21
18137;BME280;9194;42.632;23.298;2024-02-04T21:43:21;92964.34;;;9.10;67.26
18137;BME280;9194;42.632;23.298;2024-02-04T21:48:23;92953.19;;;8.96;67.91
18137;BME280;9194;42.632;23.298;2024-02-04T21:53:24;92957.97;;;8.93;66.24
18137;BME280;9194;42.632;23.298;2024-02-04T21:58:25;92940.81;;;8.85;65.86
18137;BME280;9194;42.632;23.298;2024-02-04T22:03:27;92928.69;;;8.73;66.69
18137;BME280;9194;42.632;23.298;2024-02-04T22:08:28;92937.88;;;8.36;69.84
18137;BME280;9194;42.632;23.298;2024-02-04T22:13:29;92945.25;;;8.45;69.96
18137;BME280;9194;42.632;23.298;2024-02-04T22:18:30;92937.25;;;8.67;69.22
18137;BME280;9194;42.632;23.298;2024-02-04T22:23:32;92926.09;;;8.27;71.10
18137;BME280;9194;42.632;23.298;2024-02-04T22:28:33;92916.88;;;8.11;70.61
18137;BME280;9194;42.632;23.298;2024-02-04T22:33:34;92893.38;;;8.39;65.95
18137;BME280;9194;42.632;23.298;2024-02-04T22:38:36;92880.19;;;8.60;63.67
18137;BME280;9194;42.632;23.298;2024-02-04T22:43:37;92888.97;;;8.46;65.33
18137;BME280;9194;42.632;23.298;2024-02-04T22:48:38;92888.13;;;8.78;63.98
18137;BME280;9194;42.632;23.298;2024-02-04T22:53:39;92898.13;;;8.68;65.38
18137;BME280;9194;42.632;23.298;2024-02-04T22:58:41;92892.56;;;8.58;66.89
18137;BME280;9194;42.632;23.298;2024-02-04T23:03:43;92886.38;;;8.52;67.93
18137;BME280;9194;42.632;23.298;2024-02-04T23:08:45;92864.03;;;8.51;67.65
18137;BME280;9194;42.632;23.298;2024-02-04T23:13:46;92883.94;;;8.71;66.62
18137;BME280;9194;42.632;23.298;2024-02-04T23:18:48;92859.41;;;8.67;66.72
18137;BME280;9194;42.632;23.298;2024-02-04T23:23:49;92853.81;;;8.56;66.76
18137;BME280;9194;42.632;23.298;2024-02-04T23:28:50;92835.09;;;8.61;65.69
18137;BME280;9194;42.632;23.298;2024-02-04T23:33:52;92829.88;;;8.68;65.40
18137;BME280;9194;42.632;23.298;2024-02-04T23:38:53;92813.69;;;8.72;64.67
18137;BME280;9194;42.632;23.298;2024-02-04T23:43:54;92814.56;;;8.97;63.28
18137;BME280;9194;42.632;23.298;2024-02-04T23:48:55;92800.88;;;8.77;64.03
18137;BME280;9194;42.632;23.298;2024-02-04T23:53:57;92793.16;;;8.64;64.84
18137;BME280;9194;42.632;23.298;2024-02-04T23:58:58;92815.16;;;8.42;69.30
